createdAt,value
2023-02-08T00:01:00.379Z,52.29
2023-02-08T00:03:29.324Z,52.13
2023-02-08T00:05:56.322Z,52.15
2023-02-08T00:08:24.829Z,52.17
2023-02-08T00:10:51.816Z,52.17
2023-02-08T00:13:19.602Z,52.15
2023-02-08T00:15:47.254Z,52.18
2023-02-08T00:18:14.777Z,52.19
2023-02-08T00:20:43.256Z,52.12
2023-02-08T00:23:11.160Z,52.16
2023-02-08T00:25:38.610Z,52.09
2023-02-08T00:28:08.430Z,52.05
2023-02-08T00:30:36.652Z,52.07
2023-02-08T00:33:04.741Z,52.05
2023-02-08T00:35:32.317Z,52.15
2023-02-08T00:37:59.368Z,52.15
2023-02-08T00:40:27.742Z,52.20
2023-02-08T00:42:54.835Z,52.23
2023-02-08T00:45:22.357Z,52.20
2023-02-08T00:47:49.420Z,52.41
2023-02-08T00:50:16.353Z,52.30
2023-02-08T00:52:43.320Z,52.22
2023-02-08T00:55:11.609Z,52.34
2023-02-08T00:57:38.619Z,52.31
2023-02-08T01:00:07.503Z,52.30
2023-02-08T01:02:38.539Z,52.33
2023-02-08T01:05:06.510Z,52.36
2023-02-08T01:07:33.557Z,52.29
2023-02-08T01:10:02.235Z,52.30
2023-02-08T01:12:29.287Z,52.30
2023-02-08T01:14:56.294Z,52.36
2023-02-08T01:17:23.281Z,52.36
2023-02-08T01:19:50.855Z,52.37
2023-02-08T01:22:18.911Z,52.36
2023-02-08T01:24:46.309Z,52.28
2023-02-08T01:27:13.831Z,52.51
2023-02-08T01:29:41.192Z,52.53
2023-02-08T01:32:08.440Z,52.58
2023-02-08T01:34:35.737Z,52.62
2023-02-08T01:37:04.796Z,52.56
2023-02-08T01:39:33.682Z,52.58
2023-02-08T01:42:00.812Z,52.62
2023-02-08T01:45:05.654Z,52.55
2023-02-08T01:47:32.630Z,52.64
2023-02-08T01:49:59.689Z,52.61
2023-02-08T01:52:28.929Z,52.61
2023-02-08T01:55:11.558Z,52.62
2023-02-08T01:57:39.390Z,52.66
2023-02-08T02:00:16.641Z,52.71
2023-02-08T02:02:48.295Z,52.72
2023-02-08T02:05:17.758Z,52.59
2023-02-08T02:07:45.188Z,52.54
2023-02-08T02:10:35.010Z,52.55
2023-02-08T02:13:17.197Z,52.42
2023-02-08T02:15:46.296Z,52.49
2023-02-08T02:18:18.140Z,52.48
2023-02-08T02:20:51.003Z,52.55
2023-02-08T02:23:39.643Z,52.50
2023-02-08T02:26:40.522Z,52.52
2023-02-08T02:29:45.275Z,52.40
2023-02-08T02:32:24.123Z,52.29
2023-02-08T02:35:02.918Z,52.40
2023-02-08T02:37:41.913Z,52.25
2023-02-08T02:40:30.648Z,52.46
2023-02-08T02:43:40.401Z,52.42
2023-02-08T02:46:27.993Z,52.41
2023-02-08T02:49:00.918Z,52.41
2023-02-08T02:51:49.238Z,52.48
2023-02-08T02:54:23.911Z,52.46
2023-02-08T02:57:03.818Z,52.40
2023-02-08T02:59:34.027Z,52.33
2023-02-08T03:02:02.304Z,52.51
2023-02-08T03:04:35.310Z,52.51
2023-02-08T03:07:17.314Z,52.47
2023-02-08T03:09:58.346Z,52.43
2023-02-08T03:12:53.770Z,52.37
2023-02-08T03:15:42.474Z,52.33
2023-02-08T03:18:28.910Z,52.42
2023-02-08T03:21:05.351Z,52.28
2023-02-08T03:23:41.300Z,52.26
2023-02-08T03:26:32.258Z,52.37
2023-02-08T03:29:14.895Z,52.27
2023-02-08T03:31:52.261Z,52.29
2023-02-08T03:34:42.197Z,52.29
2023-02-08T03:37:15.251Z,52.33
2023-02-08T03:39:45.713Z,52.26
2023-02-08T03:42:19.793Z,52.19
2023-02-08T03:44:53.534Z,52.27
2023-02-08T03:47:25.358Z,52.28
2023-02-08T03:49:55.297Z,52.20
2023-02-08T03:52:23.492Z,52.21
2023-02-08T03:55:13.660Z,52.21
2023-02-08T03:58:15.989Z,52.34
2023-02-08T04:00:48.881Z,52.31
2023-02-08T04:03:28.710Z,52.22
2023-02-08T04:05:56.060Z,52.25
2023-02-08T04:08:23.115Z,52.20
2023-02-08T04:10:50.144Z,52.21
2023-02-08T04:13:17.110Z,52.08
2023-02-08T04:15:44.606Z,52.17
2023-02-08T04:18:12.001Z,52.22
2023-02-08T04:20:39.535Z,52.11
2023-02-08T04:23:06.839Z,52.18
2023-02-08T04:25:33.857Z,52.20
2023-02-08T04:28:00.988Z,52.19
2023-02-08T04:30:28.072Z,52.35
2023-02-08T04:32:55.106Z,52.32
2023-02-08T04:35:23.390Z,52.25
2023-02-08T04:37:50.336Z,52.28
2023-02-08T04:40:17.688Z,52.18
2023-02-08T04:42:44.743Z,52.04
2023-02-08T04:45:11.791Z,52.12
2023-02-08T04:47:38.831Z,52.15
2023-02-08T04:50:06.489Z,52.08
2023-02-08T04:52:33.539Z,52.20
2023-02-08T04:55:00.494Z,52.06
2023-02-08T04:57:27.475Z,52.16
2023-02-08T04:59:55.255Z,52.15
2023-02-08T05:02:22.157Z,52.27
2023-02-08T05:04:49.195Z,52.18
2023-02-08T05:07:16.228Z,52.27
2023-02-08T05:09:43.285Z,52.23
2023-02-08T05:12:10.404Z,52.26
2023-02-08T05:14:37.682Z,52.29
2023-02-08T05:17:04.724Z,52.26
2023-02-08T05:19:31.791Z,52.23
2023-02-08T05:21:58.882Z,52.40
2023-02-08T05:24:26.275Z,52.34
2023-02-08T05:26:53.239Z,52.41
2023-02-08T05:29:20.276Z,52.44
2023-02-08T05:31:47.309Z,52.40
2023-02-08T05:34:14.343Z,52.39
2023-02-08T05:36:41.444Z,52.34
2023-02-08T05:39:08.566Z,52.33
2023-02-08T05:41:35.924Z,52.17
2023-02-08T05:44:02.869Z,52.20
2023-02-08T05:46:29.928Z,52.11
2023-02-08T05:48:57.253Z,52.11
2023-02-08T05:51:24.196Z,52.15
2023-02-08T05:53:51.378Z,52.17
2023-02-08T05:56:18.499Z,52.10
2023-02-08T05:58:45.418Z,52.15
2023-02-08T06:01:14.234Z,52.13
2023-02-08T06:03:41.698Z,52.17
2023-02-08T06:06:11.500Z,52.24
2023-02-08T06:08:40.104Z,52.28
2023-02-08T06:11:07.546Z,52.39
2023-02-08T06:13:34.617Z,52.35
2023-02-08T06:16:01.663Z,52.24
2023-02-08T06:18:28.925Z,52.27
2023-02-08T06:20:56.180Z,52.24
2023-02-08T06:23:24.211Z,52.21
2023-02-08T06:25:52.836Z,52.11
2023-02-08T06:28:19.850Z,52.13
2023-02-08T06:30:49.869Z,51.94
2023-02-08T06:33:17.930Z,51.85
2023-02-08T06:35:46.846Z,51.74
2023-02-08T06:38:15.410Z,51.79
2023-02-08T06:40:45.773Z,51.84
2023-02-08T06:43:12.828Z,51.71
2023-02-08T06:45:39.975Z,51.72
2023-02-08T06:48:07.072Z,51.76
2023-02-08T06:50:34.426Z,51.70
2023-02-08T06:53:01.472Z,51.75
2023-02-08T06:55:28.413Z,51.74
2023-02-08T06:57:55.869Z,51.84
2023-02-08T07:00:23.655Z,51.87
2023-02-08T07:02:52.649Z,51.98
2023-02-08T07:05:19.571Z,52.04
2023-02-08T07:07:48.618Z,52.14
2023-02-08T07:10:16.309Z,52.08
2023-02-08T07:12:44.513Z,52.13
2023-02-08T07:15:13.433Z,52.10
2023-02-08T07:17:40.465Z,52.41
2023-02-08T07:20:08.679Z,52.38
2023-02-08T07:22:35.652Z,52.29
2023-02-08T07:25:02.737Z,52.35
2023-02-08T07:27:29.759Z,52.20
2023-02-08T07:29:59.065Z,52.42
2023-02-08T07:32:26.412Z,52.42
2023-02-08T07:34:54.793Z,52.45
2023-02-08T07:37:21.750Z,52.64
2023-02-08T07:39:48.782Z,53.09
2023-02-08T07:42:15.683Z,53.32
2023-02-08T07:44:51.078Z,53.29
2023-02-08T07:47:19.252Z,53.13
2023-02-08T07:49:46.216Z,53.04
2023-02-08T07:52:13.196Z,53.10
2023-02-08T07:54:40.330Z,53.16
2023-02-08T07:57:08.425Z,53.41
2023-02-08T07:59:35.353Z,53.82
2023-02-08T08:02:02.948Z,54.51
2023-02-08T08:04:29.913Z,54.11
2023-02-08T08:06:56.796Z,54.32
2023-02-08T08:09:24.497Z,54.29
2023-02-08T08:11:51.472Z,54.37
2023-02-08T08:14:18.486Z,54.39
2023-02-08T08:16:45.414Z,54.23
2023-02-08T08:19:12.472Z,54.10
2023-02-08T08:21:39.434Z,54.10
2023-02-08T08:24:06.633Z,53.79
2023-02-08T08:26:33.575Z,53.70
2023-02-08T08:29:00.634Z,53.51
2023-02-08T08:31:27.774Z,53.38
2023-02-08T08:33:55.931Z,53.31
2023-02-08T08:36:22.958Z,53.29
2023-02-08T08:38:50.048Z,53.04
2023-02-08T08:41:23.356Z,53.11
2023-02-08T08:43:50.288Z,52.98
2023-02-08T08:46:18.098Z,52.74
2023-02-08T08:48:46.327Z,52.70
2023-02-08T08:51:16.860Z,52.54
2023-02-08T08:53:43.775Z,52.60
2023-02-08T08:56:10.883Z,52.50
2023-02-08T08:58:37.861Z,52.21
2023-02-08T09:01:04.927Z,52.07
2023-02-08T09:03:31.930Z,52.02
2023-02-08T09:05:58.957Z,51.94
2023-02-08T09:08:25.934Z,52.02
2023-02-08T09:10:53.115Z,51.92
2023-02-08T09:13:21.395Z,51.83
2023-02-08T09:15:49.408Z,51.92
2023-02-08T09:18:17.192Z,51.65
2023-02-08T09:20:45.013Z,51.82
2023-02-08T09:23:13.088Z,51.77
2023-02-08T09:25:40.485Z,51.81
2023-02-08T09:28:07.726Z,51.78
2023-02-08T09:30:35.011Z,51.68
2023-02-08T09:33:01.980Z,51.73
2023-02-08T09:35:29.017Z,51.50
2023-02-08T09:37:58.360Z,51.53
2023-02-08T09:40:31.810Z,51.55
2023-02-08T09:43:13.405Z,51.53
2023-02-08T09:45:59.320Z,51.39
2023-02-08T09:48:34.112Z,51.43
2023-02-08T09:51:11.033Z,51.30
2023-02-08T09:53:47.584Z,51.34
2023-02-08T09:56:19.466Z,51.35
2023-02-08T09:58:50.038Z,51.32
2023-02-08T10:01:31.261Z,51.40
2023-02-08T10:04:04.498Z,51.29
2023-02-08T10:06:31.702Z,51.26
2023-02-08T10:09:04.725Z,51.09
2023-02-08T10:11:46.786Z,51.08
2023-02-08T10:14:22.857Z,51.23
2023-02-08T10:17:11.167Z,51.08
2023-02-08T10:20:13.847Z,51.24
2023-02-08T10:23:04.014Z,51.20
2023-02-08T10:25:50.248Z,51.41
2023-02-08T10:28:35.790Z,51.38
2023-02-08T10:31:44.549Z,51.38
2023-02-08T10:34:43.708Z,51.46
2023-02-08T10:37:17.655Z,51.45
2023-02-08T10:39:44.953Z,51.54
2023-02-08T10:42:22.498Z,51.56
2023-02-08T10:44:56.148Z,51.51
2023-02-08T10:47:32.097Z,51.59
2023-02-08T10:50:19.255Z,51.50
2023-02-08T10:52:46.212Z,51.67
2023-02-08T10:55:16.582Z,51.62
2023-02-08T10:57:47.287Z,51.72
2023-02-08T11:00:31.504Z,51.76
2023-02-08T11:03:03.519Z,51.84
2023-02-08T11:05:38.002Z,51.91
2023-02-08T11:08:08.091Z,51.90
2023-02-08T11:10:36.749Z,51.87
2023-02-08T11:13:15.445Z,51.85
2023-02-08T11:15:52.851Z,51.71
2023-02-08T11:18:22.473Z,51.87
2023-02-08T11:20:53.717Z,51.79
2023-02-08T11:23:32.881Z,51.86
2023-02-08T11:26:21.165Z,51.80
2023-02-08T11:29:30.908Z,51.70
2023-02-08T11:32:24.060Z,51.79
2023-02-08T11:34:51.168Z,51.75
2023-02-08T11:37:26.207Z,51.82
2023-02-08T11:39:56.428Z,51.79
2023-02-08T11:42:28.107Z,51.91
2023-02-08T11:44:57.353Z,51.71
2023-02-08T11:47:27.529Z,51.61
2023-02-08T11:50:00.831Z,51.81
2023-02-08T11:52:32.645Z,52.05
2023-02-08T11:55:33.387Z,51.89
2023-02-08T11:58:14.713Z,51.93
2023-02-08T12:00:41.805Z,51.76
2023-02-08T12:03:18.786Z,51.76
2023-02-08T12:06:23.553Z,51.85
2023-02-08T12:09:02.480Z,51.70
2023-02-08T12:11:43.922Z,51.66
2023-02-08T12:14:51.443Z,51.58
2023-02-08T12:17:35.394Z,51.64
2023-02-08T12:20:20.069Z,51.61
2023-02-08T12:23:02.487Z,51.65
2023-02-08T12:26:09.633Z,51.59
2023-02-08T12:29:04.750Z,51.55
2023-02-08T12:31:45.320Z,51.52
2023-02-08T12:34:22.805Z,51.51
2023-02-08T12:37:39.599Z,51.58
2023-02-08T12:40:50.713Z,51.68
2023-02-08T12:43:50.102Z,51.70
2023-02-08T12:46:29.057Z,51.55
2023-02-08T12:49:33.986Z,51.61
2023-02-08T12:52:33.734Z,51.55
2023-02-08T12:55:30.986Z,51.50
2023-02-08T12:58:45.996Z,51.51
2023-02-08T13:01:19.644Z,51.40
2023-02-08T13:04:11.929Z,51.54
2023-02-08T13:06:49.690Z,51.51
2023-02-08T13:09:52.339Z,51.41
2023-02-08T13:12:33.592Z,51.45
2023-02-08T13:15:30.079Z,51.40
2023-02-08T13:18:00.717Z,51.38
2023-02-08T13:20:32.896Z,51.41
2023-02-08T13:23:15.346Z,51.40
2023-02-08T13:25:44.431Z,51.36
2023-02-08T13:28:19.488Z,51.39
2023-02-08T13:30:55.229Z,51.33
2023-02-08T13:34:00.426Z,51.42
2023-02-08T13:36:56.072Z,51.25
2023-02-08T13:39:45.118Z,51.33
2023-02-08T13:42:28.333Z,51.34
2023-02-08T13:45:01.502Z,51.26
2023-02-08T13:47:40.479Z,51.17
2023-02-08T13:50:47.522Z,51.21
2023-02-08T13:53:21.909Z,51.24
2023-02-08T13:56:00.882Z,51.18
2023-02-08T13:58:56.935Z,51.30
2023-02-08T14:01:30.616Z,51.31
2023-02-08T14:04:10.021Z,51.16
2023-02-08T14:06:53.662Z,51.01
2023-02-08T14:09:28.889Z,51.14
2023-02-08T14:12:07.845Z,51.16
2023-02-08T14:15:11.552Z,51.13
2023-02-08T14:17:52.545Z,51.18
2023-02-08T14:20:28.604Z,51.14
2023-02-08T14:22:59.497Z,51.02
2023-02-08T14:25:45.795Z,51.16
2023-02-08T14:28:29.852Z,51.15
2023-02-08T14:31:00.834Z,51.19
2023-02-08T14:33:36.892Z,51.21
2023-02-08T14:36:10.277Z,51.31
2023-02-08T14:39:07.816Z,51.25
2023-02-08T14:41:51.160Z,51.25
2023-02-08T14:44:37.938Z,51.26
2023-02-08T14:47:27.568Z,51.16
2023-02-08T14:50:17.556Z,51.11
2023-02-08T14:53:17.481Z,51.07
2023-02-08T14:56:16.662Z,51.20
2023-02-08T14:58:52.616Z,51.02
2023-02-08T15:01:25.743Z,51.06
2023-02-08T15:03:58.826Z,51.22
2023-02-08T15:06:39.714Z,51.11
2023-02-08T15:09:29.569Z,51.04
2023-02-08T15:12:04.484Z,51.07
2023-02-08T15:14:35.515Z,50.96
2023-02-08T15:17:02.877Z,51.15
2023-02-08T15:19:34.410Z,51.34
2023-02-08T15:22:26.290Z,51.34
2023-02-08T15:25:01.246Z,51.29
2023-02-08T15:27:33.956Z,51.51
2023-02-08T15:30:01.692Z,51.46
2023-02-08T15:32:30.268Z,51.38
2023-02-08T15:35:03.240Z,51.55
2023-02-08T15:37:35.387Z,51.44
2023-02-08T15:40:03.407Z,51.59
2023-02-08T15:42:34.424Z,51.64
2023-02-08T15:45:02.972Z,51.61
2023-02-08T15:47:36.479Z,51.62
2023-02-08T15:50:06.862Z,51.73
2023-02-08T15:52:37.024Z,51.64
2023-02-08T15:55:09.248Z,51.82
2023-02-08T15:57:39.246Z,51.82
2023-02-08T16:00:15.342Z,51.88
2023-02-08T16:02:43.112Z,52.01
2023-02-08T16:05:26.024Z,52.01
2023-02-08T16:07:54.338Z,51.83
2023-02-08T16:10:29.894Z,51.94
2023-02-08T16:12:59.748Z,51.96
2023-02-08T16:15:49.393Z,52.05
2023-02-08T16:18:46.132Z,52.03
2023-02-08T16:21:29.766Z,51.99
2023-02-08T16:23:59.928Z,52.13
2023-02-08T16:26:42.461Z,52.06
2023-02-08T16:29:18.477Z,51.97
2023-02-08T16:31:49.034Z,51.99
2023-02-08T16:34:19.687Z,52.23
2023-02-08T16:36:50.747Z,52.03
2023-02-08T16:39:17.684Z,52.06
2023-02-08T16:42:06.440Z,52.04
2023-02-08T16:44:59.046Z,51.88
2023-02-08T16:47:37.886Z,51.90
2023-02-08T16:50:06.598Z,52.01
2023-02-08T16:52:35.076Z,51.99
2023-02-08T16:55:02.345Z,52.04
2023-02-08T16:57:49.723Z,52.17
2023-02-08T17:00:23.398Z,52.14
2023-02-08T17:02:51.518Z,52.08
2023-02-08T17:05:20.026Z,52.14
2023-02-08T17:07:47.231Z,52.07
2023-02-08T17:10:30.088Z,52.20
2023-02-08T17:13:13.363Z,52.18
2023-02-08T17:15:45.590Z,52.16
2023-02-08T17:18:13.403Z,52.24
2023-02-08T17:20:41.032Z,52.06
2023-02-08T17:23:08.055Z,52.15
2023-02-08T17:25:36.143Z,52.28
2023-02-08T17:28:06.286Z,52.20
2023-02-08T17:30:40.439Z,52.27
2023-02-08T17:33:10.216Z,52.27
2023-02-08T17:35:38.370Z,52.36
2023-02-08T17:38:06.292Z,52.45
2023-02-08T17:40:36.108Z,52.33
2023-02-08T17:43:04.811Z,52.58
2023-02-08T17:45:32.143Z,52.35
2023-02-08T17:48:02.359Z,52.49
2023-02-08T17:50:29.338Z,52.47
2023-02-08T17:52:56.566Z,52.57
2023-02-08T17:55:25.116Z,52.59
2023-02-08T17:57:53.030Z,52.61
2023-02-08T18:00:22.765Z,52.50
2023-02-08T18:02:52.898Z,52.51
2023-02-08T18:05:23.949Z,52.45
2023-02-08T18:07:52.364Z,52.58
2023-02-08T18:10:20.142Z,52.48
2023-02-08T18:12:47.451Z,52.55
2023-02-08T18:15:20.074Z,52.41
2023-02-08T18:17:48.330Z,52.50
2023-02-08T18:20:16.747Z,52.36
2023-02-08T18:22:44.845Z,52.41
2023-02-08T18:25:13.519Z,52.48
2023-02-08T18:27:40.714Z,52.51
2023-02-08T18:30:10.010Z,52.53
2023-02-08T18:32:37.143Z,52.46
2023-02-08T18:35:05.272Z,52.51
2023-02-08T18:37:33.347Z,52.51
2023-02-08T18:40:00.922Z,52.48
2023-02-08T18:42:28.331Z,52.50
2023-02-08T18:44:56.029Z,52.37
2023-02-08T18:47:23.316Z,52.18
2023-02-08T18:49:57.859Z,52.35
2023-02-08T18:52:25.048Z,52.41
2023-02-08T18:54:52.199Z,52.26
2023-02-08T18:57:19.861Z,52.23
2023-02-08T18:59:46.897Z,52.14
2023-02-08T19:02:19.532Z,52.23
2023-02-08T19:04:46.918Z,52.38
2023-02-08T19:07:14.808Z,52.33
2023-02-08T19:09:42.091Z,52.53
2023-02-08T19:12:10.333Z,52.50
2023-02-08T19:14:37.619Z,52.54
2023-02-08T19:17:04.731Z,52.53
2023-02-08T19:19:32.479Z,52.54
2023-02-08T19:21:59.542Z,52.56
2023-02-08T19:24:26.812Z,52.47
2023-02-08T19:26:53.837Z,52.36
2023-02-08T19:29:22.702Z,52.26
2023-02-08T19:31:50.772Z,52.23
2023-02-08T19:34:19.324Z,52.27
2023-02-08T19:36:50.265Z,52.17
2023-02-08T19:39:23.526Z,52.23
2023-02-08T19:41:51.277Z,52.43
2023-02-08T19:44:19.767Z,52.41
2023-02-08T19:46:50.173Z,52.27
2023-02-08T19:49:18.031Z,52.38
2023-02-08T19:51:45.666Z,52.28
2023-02-08T19:54:15.657Z,52.33
2023-02-08T19:56:43.050Z,52.27
2023-02-08T19:59:18.984Z,52.33
2023-02-08T20:01:46.701Z,52.31
2023-02-08T20:04:14.586Z,52.20
2023-02-08T20:06:43.092Z,52.28
2023-02-08T20:09:10.211Z,52.16
2023-02-08T20:11:55.861Z,52.11
2023-02-08T20:14:24.309Z,52.02
2023-02-08T20:16:51.437Z,52.07
2023-02-08T20:19:18.446Z,52.12
2023-02-08T20:21:45.630Z,52.19
2023-02-08T20:24:12.866Z,51.99
2023-02-08T20:26:42.581Z,52.01
2023-02-08T20:29:10.852Z,51.96
2023-02-08T20:31:39.786Z,51.99
2023-02-08T20:34:09.777Z,51.95
2023-02-08T20:36:40.723Z,52.05
2023-02-08T20:39:11.271Z,52.14
2023-02-08T20:41:38.623Z,51.93
2023-02-08T20:44:05.886Z,52.17
2023-02-08T20:46:35.447Z,52.14
2023-02-08T20:49:04.667Z,52.21
2023-02-08T20:51:32.099Z,52.10
2023-02-08T20:54:01.191Z,52.04
2023-02-08T20:56:35.904Z,52.24
2023-02-08T20:59:08.950Z,52.08
2023-02-08T21:01:36.718Z,52.14
2023-02-08T21:04:04.609Z,52.15
2023-02-08T21:06:36.938Z,52.04
2023-02-08T21:09:10.161Z,52.36
2023-02-08T21:11:37.734Z,52.28
2023-02-08T21:14:09.348Z,52.33
2023-02-08T21:16:36.635Z,52.16
2023-02-08T21:19:04.035Z,51.92
2023-02-08T21:21:31.600Z,51.76
2023-02-08T21:23:59.183Z,51.66
2023-02-08T21:26:27.068Z,51.72
2023-02-08T21:28:56.373Z,51.57
2023-02-08T21:31:25.278Z,51.53
2023-02-08T21:33:53.285Z,51.65
2023-02-08T21:36:23.900Z,51.60
2023-02-08T21:38:51.228Z,51.63
2023-02-08T21:41:28.435Z,51.61
2023-02-08T21:43:58.610Z,51.55
2023-02-08T21:46:28.133Z,51.65
2023-02-08T21:49:15.118Z,51.78
2023-02-08T21:52:01.848Z,51.62
2023-02-08T21:54:52.502Z,51.56
2023-02-08T21:57:22.636Z,51.61
2023-02-08T21:59:53.134Z,51.55
2023-02-08T22:02:28.860Z,51.51
2023-02-08T22:04:58.173Z,51.59
2023-02-08T22:07:26.083Z,51.48
2023-02-08T22:09:53.091Z,51.63
2023-02-08T22:12:23.337Z,51.49
2023-02-08T22:14:51.081Z,51.51
2023-02-08T22:17:18.986Z,51.51
2023-02-08T22:19:46.106Z,51.59
2023-02-08T22:22:13.151Z,51.54
2023-02-08T22:24:41.828Z,51.47
2023-02-08T22:27:09.588Z,51.50
2023-02-08T22:29:36.541Z,51.59
2023-02-08T22:32:03.799Z,51.61
2023-02-08T22:34:30.796Z,51.66
2023-02-08T22:36:58.135Z,51.85
2023-02-08T22:39:25.140Z,51.82
2023-02-08T22:41:52.911Z,51.97
2023-02-08T22:44:20.160Z,52.02
2023-02-08T22:46:47.451Z,52.03
2023-02-08T22:49:14.440Z,51.96
2023-02-08T22:51:41.378Z,51.97
2023-02-08T22:54:08.383Z,51.98
2023-02-08T22:56:35.679Z,52.10
2023-02-08T22:59:02.899Z,52.10
2023-02-08T23:01:30.177Z,51.97
2023-02-08T23:04:00.152Z,51.92
2023-02-08T23:06:27.278Z,51.84
2023-02-08T23:08:54.876Z,52.02
2023-02-08T23:11:21.946Z,52.08
2023-02-08T23:13:48.969Z,52.09
2023-02-08T23:16:18.435Z,52.01
2023-02-08T23:18:46.001Z,52.06
2023-02-08T23:21:16.887Z,52.10
2023-02-08T23:23:45.382Z,52.10
2023-02-08T23:26:15.764Z,51.93
2023-02-08T23:28:43.662Z,52.06
2023-02-08T23:31:13.222Z,52.04
2023-02-08T23:33:40.961Z,52.05
2023-02-08T23:36:11.356Z,52.00
2023-02-08T23:38:38.778Z,51.88
2023-02-08T23:41:07.154Z,52.08
2023-02-08T23:43:34.861Z,51.90
2023-02-08T23:46:32.101Z,51.93
2023-02-08T23:48:59.176Z,51.87
2023-02-08T23:51:26.334Z,51.86
2023-02-08T23:53:55.656Z,51.90
2023-02-08T23:56:26.696Z,51.85
2023-02-08T23:58:56.715Z,51.84
